Georgetown, Delaware
Current Conditions -  °F | °C
As of 4:54 AM on Friday 28 Nov 2014 (Local Time) from KGED Reporting Station
Few Clouds Few Clouds  
Wind Chill: 31°   Ceiling: Unl
Heat Index: 35°   Visibility: 10mi
Dew Point: 25°   Wind: 5mph
Humidity: 67%   Direction: 310°NW
Pressure: 30.19"   Gusts: NA
Location:  38.69°N, 75.39°W
Report Text: KGED 280954Z AUTO 31004KT 10SM FEW050 02/M04 A3019 RMK AO2 SLP222 T00171039
Loading
Personal Weather Stations






























Interactive Weather Map New forecast layout! Learn more

10-Day Weather Forecast

Advertisements
Track Severe Weather on mobile